Kezdőlap
METAR-TAF:

METAR-TAF

Repülőterek :

Pöstyén, Szlovákia

földrajzi szélesség: 48-37-30N, földrajzi hosszúság: 017-49-43E, magasság: 163 m

Jelenlegi meteorológiai megfigyelések

A jelentés 47 perccel ezelõtt készült, 04:00 UTC
Északi szél 4 kt
Hőmérséklet 11°C
Páratartalom 94%
Légköri nyomás 1013 hPa
Látótávolság 10 km, vagy több
felhőtlen 1500 m magasságban, és nincs gomolyfelhõ

METAR: LZPP 150400Z 36004KT CAVOK 11/10 Q1013

Idő: 06:47 (04:47 UTC)

Előrejelzés

A jelentés 2 órával és 32 perccel ezelõtt készült, 02:15 UTC
Az előrejelzés 15-én 03 óra UTC és 15-én 12 óra UTC között érvényes
Különbözõ irányokból fújó szél 2 kt
Látótávolság 10 km, vagy több
felhőtlen 1500 m magasságban, és nincs gomolyfelhõ
15-én 07 óra UTC és 15-én 09 óra UTC között fokozatosan kialakuló
Déli szél 14 kt

TAF: LZPP 150215Z 1503/1512 VRB02KT CAVOK BECMG 1507/1509 17014KT

Meteorológiai megfigyelések és előrejelzések több, mint 4000 repülőtéren (METAR és TAF jelentéseket).

A térképen piros és sárga pontok jelzik az elérhető meteorológiai állomásokat.

Mozgassa az egeret a pont fölött, hogy megjelenjen az állomás neve.

Azután kattintson az időjárási megfigyelések és előrejelzések megtekintéséhez.

A térkép megváltoztatása: kattintson a fekete keresztel jelölt zöld gombra ráközelítéshez, a vonallal jelölt zöld gombra távolításhoz, vagy a zöld nyilakra a szomszédos térképek eléréséhez.


METAR-TAF: